createdAt,value
2019-04-30T09:07:20.259Z,6.40
2019-04-30T09:08:55.172Z,14.70
2019-04-30T09:09:55.172Z,10.50
2019-04-30T09:10:55.160Z,10.90
2019-04-30T09:11:55.921Z,11.80
2019-04-30T09:12:55.133Z,13.20
2019-04-30T09:13:55.122Z,15.90
2019-04-30T09:14:55.111Z,13.00
2019-04-30T09:15:55.105Z,7.30
2019-04-30T09:16:55.105Z,13.80
2019-04-30T09:18:03.123Z,11.50
2019-04-30T09:18:56.053Z,12.60
2019-04-30T09:19:55.042Z,9.80
2019-04-30T09:21:03.520Z,10.10
2019-04-30T09:21:56.122Z,7.90
2019-04-30T09:22:55.034Z,11.60
2019-04-30T09:23:55.033Z,8.50
2019-04-30T09:24:54.999Z,5.70
2019-04-30T09:25:55.005Z,8.80
2019-04-30T09:26:54.973Z,7.50
2019-04-30T09:27:54.986Z,11.80
2019-04-30T09:28:54.965Z,6.00
2019-04-30T09:29:54.957Z,4.70
2019-04-30T09:30:54.935Z,10.10
2019-04-30T09:31:54.915Z,8.00
2019-04-30T09:32:54.925Z,11.40
2019-04-30T09:33:57.699Z,11.10
2019-04-30T09:34:54.936Z,11.50
2019-04-30T09:35:54.889Z,8.70
2019-04-30T09:36:54.867Z,8.20
2019-04-30T09:37:59.791Z,7.50
2019-04-30T09:38:55.845Z,6.30
2019-04-30T09:40:02.265Z,5.20
2019-04-30T09:40:54.856Z,5.90
2019-04-30T09:41:54.815Z,2.80
2019-04-30T09:42:54.806Z,2.90
2019-04-30T09:43:54.789Z,3.90
2019-04-30T09:44:57.171Z,4.90
2019-04-30T09:45:54.876Z,3.10
2019-04-30T09:46:54.756Z,6.30
2019-04-30T09:47:54.748Z,6.40
2019-04-30T09:48:54.748Z,6.40
2019-04-30T09:49:54.713Z,3.00
2019-04-30T09:50:54.879Z,5.80
2019-04-30T09:51:54.800Z,2.70
2019-04-30T09:52:54.743Z,3.10
2019-04-30T09:53:59.168Z,2.90
2019-04-30T09:54:55.678Z,2.70
2019-04-30T09:55:54.666Z,3.00
2019-04-30T09:56:54.647Z,3.60
2019-04-30T09:57:54.780Z,3.00
2019-04-30T09:58:54.656Z,4.70
2019-04-30T09:59:54.607Z,2.60
2019-04-30T10:00:54.610Z,3.00
2019-04-30T10:01:54.596Z,3.10
2019-04-30T10:02:54.657Z,1.80
2019-04-30T10:03:55.069Z,3.60
2019-04-30T10:04:55.011Z,4.50
2019-04-30T10:05:54.569Z,4.30
2019-04-30T10:06:54.580Z,2.00
2019-04-30T10:07:54.553Z,3.50
2019-04-30T10:08:54.549Z,3.00
2019-04-30T10:09:54.491Z,3.90
2019-04-30T10:10:54.487Z,3.20
2019-04-30T10:12:01.484Z,2.10
2019-04-30T10:12:54.469Z,1.70
2019-04-30T10:13:54.466Z,6.30
2019-04-30T10:14:54.507Z,1.80
2019-04-30T10:15:54.434Z,2.20
2019-04-30T10:16:54.482Z,6.00
2019-04-30T10:17:54.414Z,5.20
2019-04-30T10:18:54.415Z,1.60
2019-04-30T10:19:54.408Z,1.80
2019-04-30T10:20:54.399Z,5.30
2019-04-30T10:21:54.389Z,3.60
2019-04-30T10:22:54.387Z,2.90
2019-04-30T10:23:54.369Z,4.10
2019-04-30T10:24:54.360Z,4.90
2019-04-30T10:25:54.379Z,5.30
2019-04-30T10:26:54.329Z,10.30
2019-04-30T10:27:54.337Z,6.60
2019-04-30T10:28:54.309Z,6.50
2019-04-30T10:29:54.288Z,7.40
2019-04-30T10:30:54.271Z,10.10
